Time;durP1;ratioP1;P1;durP2;ratioP2;P2;SDS_P1;SDS_P2;PMS_P1;PMS_P2;Temp;Humidity;BMP_temperature;BMP_pressure;BME280_temperature;BME280_humidity;BME280_pressure;Samples;Min_cycle;Max_cycle;Signal;HPM_P1;HPM_P2
2022/01/07 00:01:01;;;;;;;14.13;6.72;;;;;;;;;;5233825;28;20301;-83
2022/01/07 00:03:34;;;;;;;14.02;6.72;;;;;;;;;;5245182;28;20048;-83
2022/01/07 00:06:07;;;;;;;12.20;6.40;;;;;;;;;;5247466;28;20055;-82
2022/01/07 00:08:40;;;;;;;11.87;6.67;;;;;;;;;;5234427;28;20055;-83
2022/01/07 00:11:13;;;;;;;16.77;6.85;;;;;;;;;;5247588;28;20047;-83
2022/01/07 00:13:46;;;;;;;11.68;6.35;;;;;;;;;;5261393;28;20047;-84
2022/01/07 00:16:19;;;;;;;17.38;7.97;;;;;;;;;;5245682;28;20078;-83
2022/01/07 00:18:52;;;;;;;11.65;6.50;;;;;;;;;;5254729;28;20036;-84
2022/01/07 00:21:25;;;;;;;10.90;5.70;;;;;;;;;;5249868;28;20035;-83
2022/01/07 00:23:58;;;;;;;8.77;5.43;;;;;;;;;;5273908;28;20027;-84
2022/01/07 00:26:30;;;;;;;10.57;5.25;;;;;;;;;;5257109;28;20044;-85
2022/01/07 00:29:03;;;;;;;12.63;6.10;;;;;;;;;;5258657;28;20148;-84
2022/01/07 00:31:36;;;;;;;10.43;5.72;;;;;;;;;;5272845;27;20051;-84
2022/01/07 00:34:09;;;;;;;12.40;5.53;;;;;;;;;;5273951;28;20063;-84
2022/01/07 00:36:42;;;;;;;10.37;5.77;;;;;;;;;;5252919;28;20085;-84
2022/01/07 00:39:15;;;;;;;11.53;5.77;;;;;;;;;;5255752;28;20040;-84
2022/01/07 00:41:48;;;;;;;11.77;5.75;;;;;;;;;;5253523;28;20505;-83
2022/01/07 00:44:20;;;;;;;10.73;4.70;;;;;;;;;;5250526;28;20415;-82
2022/01/07 00:46:53;;;;;;;10.48;4.85;;;;;;;;;;5241472;28;20051;-84
2022/01/07 00:49:26;;;;;;;14.23;5.80;;;;;;;;;;5232501;28;20048;-83
2022/01/07 00:52:01;;;;;;;11.13;5.17;;;;;;;;;;5222921;28;20040;-82
2022/01/07 00:54:33;;;;;;;10.05;5.28;;;;;;;;;;5250271;28;20320;-84
2022/01/07 00:57:06;;;;;;;13.93;5.28;;;;;;;;;;5249280;28;20050;-84
2022/01/07 00:59:39;;;;;;;10.33;5.33;;;;;;;;;;5265522;28;20074;-84
2022/01/07 01:02:14;;;;;;;10.65;4.57;;;;;;;;;;5256063;28;20054;-84
2022/01/07 01:04:47;;;;;;;11.40;5.18;;;;;;;;;;5229918;28;20530;-83
2022/01/07 01:07:20;;;;;;;10.13;5.13;;;;;;;;;;5245233;28;20078;-84
2022/01/07 01:09:53;;;;;;;13.32;5.55;;;;;;;;;;5244569;28;20043;-84
2022/01/07 01:12:26;;;;;;;7.82;5.15;;;;;;;;;;5253131;28;20066;-85
2022/01/07 01:14:59;;;;;;;8.05;5.00;;;;;;;;;;5247517;28;20044;-82
2022/01/07 01:17:31;;;;;;;9.57;4.70;;;;;;;;;;5249570;28;20047;-83
2022/01/07 01:20:08;;;;;;;10.57;5.13;;;0.30;99.90;;;;;;5256578;28;20294;-84
2022/01/07 01:22:41;;;;;;;11.98;4.55;;;;;;;;;;5266174;28;20047;-85
2022/01/07 01:25:14;;;;;;;8.50;5.10;;;;;;;;;;5253638;28;20052;-85
2022/01/07 01:27:47;;;;;;;10.35;5.40;;;;;;;;;;5264057;28;20044;-85
2022/01/07 01:30:26;;;;;;;14.30;4.90;;;0.20;99.90;;;;;;5263232;28;20043;-84
2022/01/07 01:32:59;;;;;;;7.93;4.30;;;;;;;;;;5249298;28;20039;-84
2022/01/07 01:35:33;;;;;;;7.10;4.72;;;;;;;;;;5250912;28;20036;-86
2022/01/07 01:38:05;;;;;;;7.93;4.32;;;;;;;;;;5249692;28;20043;-84
2022/01/07 01:40:38;;;;;;;8.07;4.80;;;;;;;;;;5251579;28;20048;-83
2022/01/07 01:43:11;;;;;;;9.10;4.80;;;;;;;;;;5254011;28;20040;-84
2022/01/07 01:45:44;;;;;;;5.78;4.32;;;;;;;;;;5255823;28;20048;-85
2022/01/07 01:48:19;;;;;;;10.65;4.85;;;;;;;;;;5240753;28;20439;-84
2022/01/07 01:50:52;;;;;;;12.80;5.10;;;;;;;;;;5266490;28;20415;-83
2022/01/07 01:53:25;;;;;;;8.95;5.00;;;;;;;;;;5253102;28;20073;-84
2022/01/07 01:55:57;;;;;;;9.55;4.63;;;;;;;;;;5234901;28;20052;-85
2022/01/07 01:58:30;;;;;;;7.97;4.27;;;;;;;;;;5252699;28;20051;-84
2022/01/07 02:01:03;;;;;;;7.20;4.35;;;;;;;;;;5247634;28;20043;-85
2022/01/07 02:03:37;;;;;;;10.82;4.38;;;;;;;;;;5249072;28;20062;-84
2022/01/07 02:06:10;;;;;;;8.75;4.70;;;0.10;99.90;;;;;;5240014;28;20043;-83
2022/01/07 02:08:43;;;;;;;7.03;4.50;;;;;;;;;;5247928;28;20051;-83
2022/01/07 02:11:16;;;;;;;7.97;4.88;;;;;;;;;;5264374;28;20040;-84
2022/01/07 02:13:48;;;;;;;5.95;2.85;;;;;;;;;;5238482;28;20044;-85
2022/01/07 02:16:25;;;;;;;8.73;4.07;;;0.00;99.90;;;;;;5250893;27;20040;-84
2022/01/07 02:18:58;;;;;;;6.30;4.05;;;;;;;;;;5269121;28;20051;-85
2022/01/07 02:21:31;;;;;;;5.40;3.40;;;;;;;;;;5250986;28;20036;-85
2022/01/07 02:24:05;;;;;;;7.50;4.53;;;-0.10;99.90;;;;;;5271030;28;20043;-85
2022/01/07 02:26:38;;;;;;;5.35;3.85;;;;;;;;;;5272479;28;20051;-84
2022/01/07 02:29:13;;;;;;;8.00;3.35;;;;;;;;;;5251800;28;20048;-84
2022/01/07 02:31:46;;;;;;;7.43;3.60;;;;;;;;;;5233270;28;20051;-85
2022/01/07 02:34:19;;;;;;;6.63;3.85;;;;;;;;;;5265711;28;20044;-84
2022/01/07 02:36:52;;;;;;;6.47;3.90;;;;;;;;;;5242788;28;20652;-85
2022/01/07 02:39:25;;;;;;;7.30;3.92;;;;;;;;;;5227538;28;20430;-85
2022/01/07 02:41:58;;;;;;;6.53;3.63;;;;;;;;;;5227120;28;20047;-83
2022/01/07 02:44:31;;;;;;;6.03;3.03;;;;;;;;;;5276798;27;20040;-84
2022/01/07 02:47:04;;;;;;;5.87;3.57;;;;;;;;;;5241488;28;20402;-85
2022/01/07 02:49:37;;;;;;;5.82;4.03;;;;;;;;;;5221734;28;20697;-84
2022/01/07 02:52:10;;;;;;;5.72;3.60;;;;;;;;;;5241362;27;20054;-85
2022/01/07 02:54:43;;;;;;;7.70;3.37;;;;;;;;;;5217924;28;20047;-85
2022/01/07 02:57:16;;;;;;;6.70;3.70;;;;;;;;;;5242392;28;20058;-85
2022/01/07 02:59:49;;;;;;;6.53;3.37;;;;;;;;;;5254162;28;20055;-85
2022/01/07 03:02:22;;;;;;;7.30;3.60;;;;;;;;;;5239103;28;20044;-86
2022/01/07 03:04:55;;;;;;;5.82;3.35;;;;;;;;;;5252192;28;20042;-85
2022/01/07 03:07:29;;;;;;;8.95;4.40;;;-0.60;99.90;;;;;;5255193;28;20055;-86
2022/01/07 03:10:02;;;;;;;6.93;3.55;;;;;;;;;;5248642;28;20044;-86
2022/01/07 03:12:36;;;;;;;7.65;3.78;;;;;;;;;;5229198;28;20052;-88
2022/01/07 03:15:09;;;;;;;7.57;3.15;;;;;;;;;;5241178;28;20044;-85
2022/01/07 03:17:42;;;;;;;9.27;3.42;;;;;;;;;;5241965;28;20059;-86
2022/01/07 03:20:18;;;;;;;6.97;3.55;;;-0.70;99.90;;;;;;5243700;28;20055;-85
2022/01/07 03:22:51;;;;;;;9.50;3.70;;;;;;;;;;5232912;28;20968;-87
2022/01/07 03:25:25;;;;;;;7.55;3.55;;;;;;;;;;5240018;28;20824;-88
2022/01/07 03:28:00;;;;;;;7.43;3.23;;;-0.70;99.90;;;;;;5252892;28;20062;-86
2022/01/07 03:30:33;;;;;;;9.20;3.60;;;;;;;;;;5248594;28;20302;-86
2022/01/07 03:33:07;;;;;;;5.28;3.28;;;;;;;;;;5240918;28;20054;-86
2022/01/07 03:35:40;;;;;;;5.00;3.05;;;-0.70;99.90;;;;;;5238184;28;20059;-86
2022/01/07 03:38:14;;;;;;;10.98;3.83;;;;;;;;;;5243116;28;20048;-86
2022/01/07 03:40:48;;;;;;;4.95;3.15;;;-0.80;99.90;;;;;;5238477;28;20039;-86
2022/01/07 03:43:20;;;;;;;10.25;3.65;;;;;;;;;;5238224;28;20094;-85
2022/01/07 03:45:53;;;;;;;6.07;3.08;;;;;;;;;;5240098;28;20044;-87
2022/01/07 03:48:26;;;;;;;5.90;3.50;;;;;;;;;;5255986;28;20048;-87
2022/01/07 03:50:59;;;;;;;8.80;3.20;;;;;;;;;;5240215;28;20059;-89
2022/01/07 03:53:32;;;;;;;7.45;3.30;;;;;;;;;;5248619;28;20306;-86
2022/01/07 03:56:05;;;;;;;4.82;2.95;;;;;;;;;;5216596;28;20873;-86
2022/01/07 03:58:38;;;;;;;5.88;3.05;;;;;;;;;;5239613;28;20296;-86
2022/01/07 04:01:11;;;;;;;3.40;2.60;;;;;;;;;;5224633;28;20051;-86
2022/01/07 04:03:44;;;;;;;6.72;3.90;;;;;;;;;;5239528;28;21353;-87
2022/01/07 04:06:20;;;;;;;8.50;3.10;;;;;;;;;;5237823;28;20446;-87
2022/01/07 04:08:53;;;;;;;6.70;2.88;;;;;;;;;;5236402;28;20793;-86
2022/01/07 04:11:26;;;;;;;5.07;2.90;;;;;;;;;;5236433;28;20039;-87
2022/01/07 04:14:01;;;;;;;4.85;2.78;;;;;;;;;;5233633;28;20301;-86
2022/01/07 04:16:34;;;;;;;5.68;2.95;;;;;;;;;;5220576;28;20071;-87
2022/01/07 04:19:07;;;;;;;5.30;2.80;;;;;;;;;;5236069;28;20525;-87
2022/01/07 04:21:40;;;;;;;3.40;2.25;;;;;;;;;;5225866;28;20290;-87
2022/01/07 04:24:13;;;;;;;8.23;2.90;;;;;;;;;;5217659;28;20052;-88
2022/01/07 04:26:46;;;;;;;6.33;3.57;;;;;;;;;;5235083;28;20047;-88
2022/01/07 04:29:19;;;;;;;5.20;3.13;;;;;;;;;;5233993;28;20321;-88
2022/01/07 04:31:52;;;;;;;4.57;3.03;;;;;;;;;;5234628;28;20054;-88
2022/01/07 04:34:25;;;;;;;6.63;2.80;;;;;;;;;;5222734;28;20549;-90
2022/01/07 04:36:57;;;;;;;4.53;3.10;;;;;;;;;;5223431;28;20533;-87
2022/01/07 04:39:30;;;;;;;8.00;3.10;;;;;;;;;;5237820;28;20051;-87
2022/01/07 04:42:03;;;;;;;3.95;2.72;;;;;;;;;;5248541;28;20683;-88
2022/01/07 04:44:40;;;;;;;5.00;3.35;;;;;;;;;;5222000;28;20051;-87
2022/01/07 04:47:13;;;;;;;4.32;3.25;;;;;;;;;;5230783;28;20055;-87
2022/01/07 04:49:46;;;;;;;6.28;2.97;;;;;;;;;;5220276;28;20058;-89
2022/01/07 04:52:21;;;;;;;5.72;3.00;;;;;;;;;;5237521;28;20535;-87
2022/01/07 04:54:54;;;;;;;10.13;3.28;;;-1.30;99.90;;;;;;5250570;28;20064;-87
2022/01/07 04:57:27;;;;;;;4.43;2.60;;;;;;;;;;5222661;28;20047;-87
2022/01/07 05:00:00;;;;;;;4.20;2.93;;;;;;;;;;5229318;28;20055;-87
2022/01/07 05:02:33;;;;;;;4.45;3.10;;;;;;;;;;5240419;28;20055;-88
2022/01/07 05:05:06;;;;;;;8.40;3.80;;;;;;;;;;5241768;28;20048;-90
2022/01/07 05:07:40;;;;;;;6.78;3.63;;;;;;;;;;5232811;28;20056;-88
2022/01/07 05:10:14;;;;;;;8.52;3.60;;;-1.50;99.90;;;;;;5239758;28;20074;-89
2022/01/07 05:12:47;;;;;;;6.88;3.55;;;;;;;;;;5236094;28;20056;-88
2022/01/07 05:15:22;;;;;;;4.70;3.08;;;;;;;;;;5236576;28;20035;-88
2022/01/07 05:17:55;;;;;;;20.85;9.68;;;;;;;;;;5224220;28;20048;-86
2022/01/07 05:20:28;;;;;;;39.17;17.90;;;;;;;;;;5236575;28;20585;-87
2022/01/07 05:23:01;;;;;;;13.73;6.40;;;;;;;;;;5215922;28;20297;-87
2022/01/07 05:25:35;;;;;;;5.97;3.47;;;;;;;;;;5223750;28;20044;-88
2022/01/07 05:28:08;;;;;;;5.47;3.58;;;;;;;;;;5219397;28;20051;-87
2022/01/07 05:30:41;;;;;;;4.18;3.33;;;;;;;;;;5236811;28;20055;-87
2022/01/07 05:33:14;;;;;;;5.63;3.95;;;;;;;;;;5237964;28;20055;-88
2022/01/07 05:35:47;;;;;;;8.77;3.83;;;;;;;;;;5225311;28;20515;-89
2022/01/07 05:38:20;;;;;;;7.78;3.83;;;;;;;;;;5216554;28;20047;-87
2022/01/07 05:40:53;;;;;;;7.15;3.80;;;;;;;;;;5235916;28;20226;-87
2022/01/07 05:43:28;;;;;;;6.43;3.33;;;;;;;;;;5224304;28;20041;-88
2022/01/07 05:46:01;;;;;;;10.30;4.03;;;;;;;;;;5219919;28;20427;-87
2022/01/07 05:48:34;;;;;;;5.85;3.50;;;;;;;;;;5231696;28;20063;-87
2022/01/07 05:51:07;;;;;;;5.85;3.60;;;;;;;;;;5237961;28;20055;-91
2022/01/07 05:53:40;;;;;;;5.80;3.30;;;;;;;;;;5252332;28;20125;-88
2022/01/07 05:56:13;;;;;;;6.15;3.70;;;;;;;;;;5238759;28;20048;-87
2022/01/07 05:58:46;;;;;;;8.95;3.50;;;;;;;;;;5232617;28;20063;-87
2022/01/07 06:01:19;;;;;;;15.77;6.63;;;;;;;;;;5236538;28;20051;-89
2022/01/07 06:03:52;;;;;;;18.42;7.57;;;;;;;;;;5240354;28;20063;-88
2022/01/07 06:06:27;;;;;;;19.50;7.30;;;;;;;;;;5221372;28;20051;-89
2022/01/07 06:09:00;;;;;;;16.40;5.65;;;;;;;;;;5222940;28;20051;-87
2022/01/07 06:11:33;;;;;;;17.85;5.75;;;;;;;;;;5231791;28;20510;-88
2022/01/07 06:14:06;;;;;;;15.85;6.47;;;;;;;;;;5221633;28;20814;-88
2022/01/07 06:16:39;;;;;;;7.87;4.60;;;;;;;;;;5223798;28;20048;-89
2022/01/07 06:19:12;;;;;;;9.60;4.45;;;;;;;;;;5236399;28;20044;-87
2022/01/07 06:21:45;;;;;;;8.23;4.60;;;;;;;;;;5215817;28;20075;-88
2022/01/07 06:24:18;;;;;;;11.02;5.45;;;;;;;;;;5232983;28;20678;-87
2022/01/07 06:26:51;;;;;;;17.52;6.35;;;;;;;;;;5231654;28;20048;-88
2022/01/07 06:29:26;;;;;;;14.07;5.70;;;;;;;;;;5213326;28;20055;-87
2022/01/07 06:31:59;;;;;;;9.20;4.72;;;;;;;;;;5239403;28;20297;-90
2022/01/07 06:34:32;;;;;;;9.25;4.18;;;;;;;;;;5249576;28;20059;-87
2022/01/07 06:37:05;;;;;;;6.82;3.35;;;;;;;;;;5222652;28;20055;-90
2022/01/07 06:39:38;;;;;;;10.40;3.53;;;;;;;;;;5220394;28;20052;-89
2022/01/07 06:42:12;;;;;;;7.20;3.10;;;;;;;;;;5215249;28;20047;-87
2022/01/07 06:44:45;;;;;;;6.55;3.40;;;;;;;;;;5231338;28;20055;-88
2022/01/07 06:47:18;;;;;;;5.07;3.30;;;;;;;;;;5221645;28;20040;-87
2022/01/07 06:49:50;;;;;;;6.35;3.20;;;;;;;;;;5217365;28;20052;-88
2022/01/07 06:52:24;;;;;;;6.90;3.17;;;;;;;;;;5234947;28;20043;-86
2022/01/07 06:54:57;;;;;;;7.32;3.63;;;;;;;;;;5234181;28;20059;-87
2022/01/07 06:57:30;;;;;;;5.18;3.33;;;;;;;;;;5245690;28;20055;-87
2022/01/07 07:00:04;;;;;;;6.67;3.90;;;-1.90;99.90;;;;;;5221507;28;20043;-88
2022/01/07 07:02:37;;;;;;;7.10;3.95;;;;;;;;;;5224693;28;20066;-89
2022/01/07 07:05:10;;;;;;;9.75;4.10;;;;;;;;;;5215610;28;20399;-88
2022/01/07 07:07:43;;;;;;;18.70;4.22;;;;;;;;;;5221588;28;20047;-87
2022/01/07 07:10:16;;;;;;;7.07;3.80;;;;;;;;;;5253833;28;20043;-87
2022/01/07 07:12:49;;;;;;;10.95;6.30;;;;;;;;;;5228884;28;20040;-88
2022/01/07 07:15:23;;;;;;;14.07;6.45;;;;;;;;;;5254236;28;20114;-89
2022/01/07 07:17:56;;;;;;;13.10;6.38;;;;;;;;;;5217632;28;20052;-86
2022/01/07 07:20:29;;;;;;;10.30;5.50;;;;;;;;;;5229239;28;20044;-89
2022/01/07 07:23:02;;;;;;;13.27;4.93;;;;;;;;;;5199623;28;20059;-87
2022/01/07 07:25:35;;;;;;;6.22;3.97;;;;;;;;;;5209492;28;20428;-86
2022/01/07 07:28:09;;;;;;;6.78;4.40;;;;;;;;;;5191748;28;20055;-90
2022/01/07 07:30:42;;;;;;;7.43;4.40;;;;;;;;;;5228218;28;20042;-89
2022/01/07 07:41:49;;;;;;;13.70;4.85;;;;;;;;;;5199723;28;20051;-90
2022/01/07 07:44:22;;;;;;;9.80;5.13;;;;;;;;;;5213368;28;20409;-88
2022/01/07 07:46:55;;;;;;;16.63;5.03;;;;;;;;;;5218964;28;20502;-87
2022/01/07 07:49:29;;;;;;;11.73;4.45;;;;;;;;;;5230459;28;20071;-88
2022/01/07 07:52:02;;;;;;;8.73;4.43;;;;;;;;;;5216333;28;20044;-90
2022/01/07 07:54:53;;;;;;;7.82;3.47;;;;;;;;;;5222121;28;20055;-89
2022/01/07 07:57:33;;;;;;;5.05;3.40;;;;;;;;;;5220501;28;20044;-90
2022/01/07 08:00:14;;;;;;;6.07;3.33;;;;;;;;;;5202137;28;20191;-90
2022/01/07 08:02:55;;;;;;;6.53;3.13;;;;;;;;;;5200184;28;20052;-90
2022/01/07 08:05:37;;;;;;;5.88;3.40;;;;;;;;;;5202231;28;20051;-90
2022/01/07 08:08:10;;;;;;;8.45;3.72;;;;;;;;;;5197571;28;20199;-89
2022/01/07 08:11:15;;;;;;;7.78;3.50;;;;;;;;;;5192724;28;20036;-91
2022/01/07 08:17:00;;;;;;;6.32;2.85;;;;;;;;;;5221215;28;20035;-90
2022/01/07 08:20:09;;;;;;;5.88;3.40;;;;;;;;;;5222376;28;20059;-91
2022/01/07 08:23:04;;;;;;;4.95;3.22;;;;;;;;;;5217974;28;20226;-90
2022/01/07 08:25:51;;;;;;;3.97;3.22;;;;;;;;;;5222381;28;20040;-91
2022/01/07 08:28:28;;;;;;;5.35;3.53;;;;;;;;;;5210981;28;20055;-92
2022/01/07 08:31:24;;;;;;;9.90;4.80;;;;;;;;;;5214600;28;20062;-90
2022/01/07 08:37:12;;;;;;;8.18;4.00;;;;;;;;;;5232159;28;20416;-90
2022/01/07 08:39:55;;;;;;;10.63;4.00;;;;;;;;;;5228107;28;20040;-91
2022/01/07 08:42:40;;;;;;;7.28;4.05;;;;;;;;;;5220894;28;20642;-91
2022/01/07 08:45:50;;;;;;;6.10;3.42;;;-0.20;99.90;;;;;;5233056;28;20054;-91
2022/01/07 08:48:31;;;;;;;46.60;14.52;;;-0.10;99.90;;;;;;5220033;22;20053;-34
2022/01/07 08:51:04;;;;;;;11.13;5.10;;;-0.10;99.90;;;;;;5203499;28;20040;-34
2022/01/07 08:53:37;;;;;;;;;;;-0.10;99.90;;;;;;5193371;28;20051;-33
2022/01/07 08:56:10;;;;;;;5.57;3.75;;;;;;;;;;5192793;28;20179;-34
2022/01/07 08:58:43;;;;;;;5.78;4.28;;;;;;;;;;5170985;28;20122;-33
2022/01/07 09:01:16;;;;;;;5.38;4.13;;;;;;;;;;5231707;28;20594;-33
2022/01/07 09:03:49;;;;;;;6.25;3.63;;;;;;;;;;5223151;22;20390;-40
2022/01/07 09:06:22;;;;;;;7.20;4.47;;;;;;;;;;5190585;28;20063;-38
2022/01/07 09:08:55;;;;;;;6.47;3.90;;;;;;;;;;5193605;28;20507;-40
2022/01/07 09:11:28;;;;;;;9.13;3.88;;;;;;;;;;5197042;28;20617;-39
2022/01/07 09:14:01;;;;;;;8.33;4.07;;;;;;;;;;5200100;28;21376;-40
2022/01/07 09:16:34;;;;;;;7.45;4.05;;;;;;;;;;5214734;28;20052;-39
2022/01/07 09:19:06;;;;;;;8.20;3.83;;;;;;;;;;5220282;28;20052;-38
2022/01/07 09:21:39;;;;;;;10.95;3.92;;;;;;;;;;5221353;28;20414;-39
2022/01/07 09:24:12;;;;;;;7.07;3.80;;;;;;;;;;5218001;28;20508;-40
2022/01/07 09:26:45;;;;;;;6.53;3.50;;;;;;;;;;5220034;28;20139;-39
2022/01/07 09:29:18;;;;;;;6.45;3.50;;;;;;;;;;5217325;28;20132;-39
2022/01/07 09:31:51;;;;;;;7.38;3.60;;;0.90;99.90;;;;;;5215338;28;20041;-39
2022/01/07 09:34:24;;;;;;;4.85;3.25;;;;;;;;;;5199548;28;20054;-39
2022/01/07 09:37:01;;;;;;;7.47;3.85;;;;;;;;;;5209973;28;20049;-39
2022/01/07 09:39:36;;;;;;;7.88;4.07;;;;;;;;;;5218316;28;20048;-39
2022/01/07 09:42:10;;;;;;;6.50;4.68;;;;;;;;;;5214564;28;20107;-38
2022/01/07 09:44:43;;;;;;;6.97;4.60;;;1.30;99.90;;;;;;5221998;28;20048;-39
2022/01/07 09:47:17;;;;;;;8.65;3.15;;;;;;;;;;5220153;28;20432;-39
2022/01/07 09:49:50;;;;;;;4.88;3.45;;;;;;;;;;5208457;28;20054;-38
2022/01/07 09:52:25;;;;;;;7.33;3.70;;;1.30;98.90;;;;;;5220893;28;20052;-39
2022/01/07 09:54:58;;;;;;;4.50;3.22;;;;;;;;;;5210279;28;20064;-39
2022/01/07 09:57:31;;;;;;;4.60;2.90;;;;;;;;;;5201205;28;20051;-38
2022/01/07 10:00:05;;;;;;;4.00;2.90;;;1.40;99.40;;;;;;5217822;28;20040;-39
2022/01/07 10:03:08;;;;;;;8.80;3.63;;;1.50;98.80;;;;;;5215898;28;20299;-38
2022/01/07 10:05:49;;;;;;;6.97;2.67;;;1.60;98.40;;;;;;5212959;28;20234;-39
2022/01/07 10:08:24;;;;;;;4.88;2.67;;;1.60;98.90;;;;;;5215248;28;20051;-41
2022/01/07 10:11:18;;;;;;;4.35;2.55;;;1.60;98.90;;;;;;5201211;28;20535;-38
2022/01/07 10:14:21;;;;;;;6.00;3.13;;;1.70;98.70;;;;;;5217054;28;20052;-39
2022/01/07 10:16:59;;;;;;;4.50;2.63;;;1.70;98.30;;;;;;5214127;28;20047;-38
2022/01/07 10:19:41;;;;;;;4.80;2.35;;;1.80;98.00;;;;;;5206559;28;20037;-39
2022/01/07 10:22:15;;;;;;;4.40;2.90;;;1.90;98.70;;;;;;5207937;28;20047;-39
2022/01/07 10:24:59;;;;;;;4.72;3.08;;;1.90;98.40;;;;;;5209392;28;20044;-41
2022/01/07 10:27:39;;;;;;;3.20;2.60;;;1.90;97.30;;;;;;5215307;28;20052;-39
2022/01/07 10:30:12;;;;;;;5.63;2.90;;;;;;;;;;5215716;28;20052;-38
2022/01/07 10:32:46;;;;;;;7.43;3.65;;;;;;;;;;5209398;28;20053;-38
2022/01/07 10:35:21;;;;;;;3.72;2.63;;;2.10;96.90;;;;;;5219311;28;20041;-40
2022/01/07 10:37:59;;;;;;;5.80;3.15;;;2.10;96.40;;;;;;5219622;28;20048;-39
2022/01/07 10:40:40;;;;;;;4.78;3.00;;;2.10;95.60;;;;;;5221529;28;20041;-38
2022/01/07 10:43:14;;;;;;;5.22;2.72;;;2.10;95.40;;;;;;5224169;28;20285;-38
2022/01/07 10:45:47;;;;;;;9.05;3.03;;;;;;;;;;5203819;28;20037;-38
2022/01/07 10:48:22;;;;;;;3.58;2.50;;;2.00;95.40;;;;;;5224991;28;20041;-38
2022/01/07 10:50:55;;;;;;;3.22;2.50;;;;;;;;;;5219146;28;20060;-38
2022/01/07 10:53:29;;;;;;;7.13;2.73;;;2.10;95.10;;;;;;5220006;28;20051;-38
2022/01/07 10:56:12;;;;;;;3.88;2.97;;;2.00;94.60;;;;;;5225214;28;20048;-39
2022/01/07 10:58:49;;;;;;;5.47;2.70;;;1.90;94.80;;;;;;5224397;28;20075;-38
2022/01/07 11:01:22;;;;;;;7.53;2.78;;;;;;;;;;5217155;28;20048;-39
2022/01/07 11:03:59;;;;;;;3.90;2.43;;;2.00;94.80;;;;;;5201584;28;20585;-44
2022/01/07 11:06:32;;;;;;;3.53;2.65;;;;;;;;;;5222396;28;20294;-39
2022/01/07 11:09:09;;;;;;;4.13;2.78;;;2.00;94.30;;;;;;5201893;28;20052;-39
2022/01/07 11:11:51;;;;;;;5.57;2.65;;;2.00;94.20;;;;;;5216980;28;20538;-40
2022/01/07 11:14:26;;;;;;;3.50;2.53;;;2.10;94.00;;;;;;5214675;28;20040;-39
2022/01/07 11:17:03;;;;;;;3.85;2.70;;;2.10;94.30;;;;;;5217999;28;20491;-38
2022/01/07 11:19:40;;;;;;;6.60;3.35;;;2.10;94.10;;;;;;5213271;28;20044;-39
2022/01/07 11:22:14;;;;;;;4.63;3.17;;;;;;;;;;5214364;28;20043;-40
2022/01/07 11:24:56;;;;;;;4.70;3.00;;;2.20;93.90;;;;;;5205861;28;20346;-39
2022/01/07 11:27:29;;;;;;;4.20;2.25;;;;;;;;;;5202432;28;20674;-40
2022/01/07 11:30:08;;;;;;;2.73;2.30;;;2.40;93.40;;;;;;5184660;28;20610;-39
2022/01/07 11:32:41;;;;;;;3.85;2.30;;;2.40;93.00;;;;;;5164123;28;20700;-39
2022/01/07 11:35:19;;;;;;;4.18;2.13;;;3.20;93.00;;;;;;5183382;28;21214;-39
2022/01/07 11:37:55;;;;;;;7.13;2.83;;;2.40;92.80;;;;;;5192580;28;20491;-41
2022/01/07 11:40:32;;;;;;;3.88;2.20;;;2.50;92.70;;;;;;5173046;28;20637;-40
2022/01/07 11:43:24;;;;;;;3.25;2.13;;;2.50;92.20;;;;;;5179969;28;20032;-37
2022/01/07 11:46:34;;;;;;;4.35;2.20;;;2.50;91.80;;;;;;5161099;28;20380;-36
2022/01/07 11:49:31;;;;;;;5.95;2.25;;;2.60;92.20;;;;;;5072223;28;20054;-36
2022/01/07 11:52:34;;;;;;;3.80;2.28;;;2.60;92.10;;;;;;5190520;28;20048;-38
2022/01/07 11:55:26;;;;;;;3.03;1.95;;;2.70;91.70;;;;;;5188368;28;20135;-36
2022/01/07 11:58:05;;;;;;;3.35;1.90;;;1.10;91.50;;;;;;5149627;28;20864;-36
2022/01/07 12:00:59;;;;;;;4.30;2.00;;;2.70;91.40;;;;;;5142242;28;20602;-37
2022/01/07 12:03:43;;;;;;;6.60;2.20;;;2.70;90.90;;;;;;5152249;28;20055;-37
2022/01/07 12:06:29;;;;;;;;;;;2.70;90.70;;;;;;5181434;28;20036;-39
2022/01/07 12:09:03;;;;;;;5.07;2.17;;;;;;;;;;5188065;28;20089;-37
2022/01/07 12:11:36;;;;;;;2.67;2.20;;;;;;;;;;5183776;28;20055;-37
2022/01/07 12:14:10;;;;;;;2.20;1.73;;;2.70;91.80;;;;;;5161109;28;20048;-37
2022/01/07 12:16:44;;;;;;;3.22;2.10;;;2.60;92.10;;;;;;5179049;28;20448;-36
2022/01/07 12:19:21;;;;;;;3.03;2.10;;;;;;;;;;5172287;28;20055;-37
2022/01/07 12:21:56;;;;;;;7.40;2.45;;;2.70;91.50;;;;;;5177257;28;20033;-37
2022/01/07 12:24:31;;;;;;;3.00;2.10;;;2.70;91.80;;;;;;5196915;28;20516;-37
2022/01/07 12:27:04;;;;;;;4.10;2.63;;;2.80;91.40;;;;;;5198665;28;20040;-36
2022/01/07 12:29:40;;;;;;;2.97;2.20;;;2.80;91.40;;;;;;5190521;28;21918;-38
2022/01/07 12:32:16;;;;;;;2.70;1.80;;;2.80;91.70;;;;;;5190794;28;20048;-38
2022/01/07 12:34:50;;;;;;;3.13;1.98;;;2.80;91.70;;;;;;5176159;28;20522;-38
2022/01/07 12:37:27;;;;;;;3.35;2.10;;;2.90;91.60;;;;;;5174814;28;20045;-38
2022/01/07 12:40:02;;;;;;;4.45;2.40;;;2.90;91.60;;;;;;5183986;28;20511;-37
2022/01/07 12:42:44;;;;;;;3.22;2.17;;;2.90;91.30;;;;;;5196651;28;20060;-38
2022/01/07 12:45:22;;;;;;;3.53;2.10;;;2.80;90.80;;;;;;5189319;28;22185;-38
2022/01/07 12:47:55;;;;;;;5.28;2.70;;;;;;;;;;5197606;28;20049;-36
2022/01/07 12:50:29;;;;;;;3.67;2.38;;;;;;;;;;5178569;28;20056;-37
2022/01/07 12:53:06;;;;;;;4.38;2.13;;;2.90;90.50;;;;;;5186352;28;20048;-37
2022/01/07 12:55:38;;;;;;;4.50;2.15;;;;;;;;;;5206163;28;20303;-37
2022/01/07 12:58:26;;;;;;;3.33;1.80;;;2.80;90.40;;;;;;5202183;28;20040;-38
2022/01/07 13:00:59;;;;;;;4.05;1.90;;;;;;;;;;5187103;28;20044;-37
2022/01/07 13:03:32;;;;;;;5.10;2.47;;;;;;;;;;5186792;28;20067;-38
2022/01/07 13:06:05;;;;;;;3.60;2.22;;;;;;;;;;5192252;28;20048;-38
2022/01/07 13:08:38;;;;;;;2.80;2.00;;;;;;;;;;5177622;28;20060;-38
2022/01/07 13:11:11;;;;;;;3.08;2.35;;;;;;;;;;5190770;28;20299;-37
2022/01/07 13:13:43;;;;;;;4.82;2.28;;;;;;;;;;5176578;28;20942;-38
2022/01/07 13:16:20;;;;;;;3.33;2.13;;;2.90;90.90;;;;;;5161691;28;20040;-38
2022/01/07 13:18:53;;;;;;;3.97;1.95;;;;;;;;;;5199798;28;21075;-38
2022/01/07 13:21:26;;;;;;;5.13;2.28;;;;;;;;;;5200923;28;20549;-39
2022/01/07 13:24:02;;;;;;;4.00;2.13;;;2.90;90.40;;;;;;5191580;28;20045;-38
2022/01/07 13:26:37;;;;;;;3.72;2.75;;;2.90;90.20;;;;;;5180140;28;20049;-38
2022/01/07 13:29:18;;;;;;;4.15;2.50;;;2.90;90.30;;;;;;5193698;28;20052;-38
2022/01/07 13:31:58;;;;;;;3.42;2.28;;;2.90;90.40;;;;;;5181114;28;20071;-38
2022/01/07 13:34:34;;;;;;;3.63;2.53;;;2.90;90.90;;;;;;4492461;28;10000180;-39
2022/01/07 13:37:12;;;;;;;3.60;2.00;;;2.80;91.00;;;;;;5202141;28;20201;-39
2022/01/07 13:39:51;;;;;;;4.63;2.63;;;2.80;90.80;;;;;;5202283;28;20049;-40
2022/01/07 13:42:29;;;;;;;3.45;2.10;;;2.80;90.70;;;;;;5189403;28;20052;-39
2022/01/07 13:45:04;;;;;;;3.70;2.13;;;2.80;90.80;;;;;;5209219;28;20051;-38
2022/01/07 13:47:37;;;;;;;5.10;2.70;;;2.90;91.30;;;;;;5191118;28;20041;-38
2022/01/07 13:50:17;;;;;;;5.95;3.40;;;2.80;90.50;;;;;;5201808;28;20063;-42
2022/01/07 13:52:51;;;;;;;4.20;2.45;;;;;;;;;;5197564;28;20605;-37
2022/01/07 13:55:33;;;;;;;4.05;2.13;;;2.80;91.00;;;;;;5208410;28;20041;-39
2022/01/07 13:58:11;;;;;;;3.70;2.33;;;2.90;91.10;;;;;;5196495;28;20048;-38
2022/01/07 14:00:46;;;;;;;6.90;3.03;;;2.90;91.50;;;;;;5198239;28;20052;-38
2022/01/07 14:03:19;;;;;;;4.63;2.65;;;;;;;;;;5208533;28;20052;-38
2022/01/07 14:06:02;;;;;;;5.15;2.75;;;2.80;91.10;;;;;;5214239;28;20041;-38
2022/01/07 14:08:35;;;;;;;5.23;2.80;;;;;;;;;;5202280;28;20490;-38
2022/01/07 14:11:15;;;;;;;4.70;2.50;;;2.80;91.10;;;;;;5192492;28;20048;-38
2022/01/07 14:13:48;;;;;;;7.35;3.72;;;;;;;;;;5210043;28;20056;-39
2022/01/07 14:16:23;;;;;;;7.43;3.10;;;2.80;91.50;;;;;;5187855;28;20060;-38
2022/01/07 14:19:00;;;;;;;6.07;2.90;;;2.80;90.80;;;;;;5202226;28;20154;-38
2022/01/07 14:21:33;;;;;;;5.55;3.03;;;;;;;;;;5200495;28;20584;-38
2022/01/07 14:24:06;;;;;;;7.05;3.90;;;;;;;;;;5177444;28;20428;-38
2022/01/07 14:26:44;;;;;;;4.53;2.80;;;2.80;90.80;;;;;;5149703;28;20055;-39
2022/01/07 14:29:17;;;;;;;5.85;3.22;;;;;;;;;;5202915;28;20044;-38
2022/01/07 14:31:56;;;;;;;5.68;3.15;;;;;;;;;;5188147;28;20051;-38
2022/01/07 14:34:29;;;;;;;5.80;3.15;;;;;;;;;;5195874;28;20435;-38
2022/01/07 14:37:02;;;;;;;5.38;3.38;;;;;;;;;;5212422;28;20450;-37
2022/01/07 14:39:35;;;;;;;4.47;2.95;;;;;;;;;;5203853;28;20040;-38
2022/01/07 14:42:08;;;;;;;8.35;3.83;;;;;;;;;;5205145;28;20048;-38
2022/01/07 14:44:41;;;;;;;8.50;3.75;;;;;;;;;;5218402;28;20052;-38
2022/01/07 14:47:14;;;;;;;12.32;3.92;;;;;;;;;;5191955;28;20570;-38
2022/01/07 14:49:50;;;;;;;4.22;2.90;;;;;;;;;;5179070;28;20052;-38
2022/01/07 14:52:25;;;;;;;9.57;4.05;;;;;;;;;;5198035;28;20522;-37
2022/01/07 14:55:00;;;;;;;18.33;6.47;;;;;;;;;;5180886;28;20059;-37
2022/01/07 14:57:33;;;;;;;22.60;9.15;;;;;;;;;;5177936;28;20068;-38
2022/01/07 15:00:07;;;;;;;8.63;5.05;;;2.70;91.40;;;;;;5173864;28;20354;-36
2022/01/07 15:02:40;;;;;;;9.55;4.13;;;;;;;;;;5178935;28;20051;-38
2022/01/07 15:05:13;;;;;;;6.25;3.88;;;;;;;;;;5185965;22;20655;-32
2022/01/07 15:08:07;;;;;;;7.43;4.30;;;2.70;90.90;;;;;;5155012;28;20049;-31
2022/01/07 15:10:40;;;;;;;7.07;3.88;;;;;;;;;;5133785;28;20052;-34